createdAt,value
2023-04-29T00:00:45.518Z,101152.56
2023-04-29T00:03:49.833Z,101146.44
2023-04-29T00:06:53.684Z,101144.75
2023-04-29T00:09:58.860Z,101153.50
2023-04-29T00:13:02.582Z,101152.63
2023-04-29T00:16:07.551Z,101155.38
2023-04-29T00:19:11.422Z,101158.88
2023-04-29T00:22:15.081Z,101158.03
2023-04-29T00:25:20.631Z,101171.19
2023-04-29T00:28:24.306Z,101167.72
2023-04-29T00:31:28.353Z,101166.97
2023-04-29T00:34:32.043Z,101180.97
2023-04-29T00:37:36.267Z,101187.88
2023-04-29T00:40:41.376Z,101187.19
2023-04-29T00:43:45.000Z,101189.09
2023-04-29T00:46:48.641Z,101195.97
2023-04-29T00:49:52.527Z,101201.25
2023-04-29T00:52:56.510Z,101203.88
2023-04-29T00:56:03.644Z,101203.16
2023-04-29T00:59:09.463Z,101203.03
2023-04-29T01:02:13.308Z,101207.50
2023-04-29T01:05:18.096Z,101211.97
2023-04-29T01:08:34.795Z,101226.72
2023-04-29T01:12:08.253Z,101223.38
2023-04-29T01:15:22.441Z,101227.72
2023-04-29T01:18:35.724Z,101226.94
2023-04-29T01:21:49.289Z,101237.44
2023-04-29T01:24:55.076Z,101240.03
2023-04-29T01:28:15.549Z,101241.81
2023-04-29T01:31:26.926Z,101243.56
2023-04-29T01:34:43.438Z,101243.53
2023-04-29T01:37:56.310Z,101244.47
2023-04-29T01:41:15.256Z,101258.47
2023-04-29T01:44:25.624Z,101247.22
2023-04-29T01:47:31.508Z,101260.31
2023-04-29T01:50:35.296Z,101260.34
2023-04-29T01:53:40.515Z,101268.19
2023-04-29T01:56:46.079Z,101273.38
2023-04-29T01:59:49.718Z,101286.41
2023-04-29T02:02:54.947Z,101280.34
2023-04-29T02:05:59.339Z,101285.69
2023-04-29T02:09:02.994Z,101292.47
2023-04-29T02:12:08.166Z,101297.06
2023-04-29T02:15:12.535Z,101305.72
2023-04-29T02:18:16.203Z,101311.06
2023-04-29T02:21:19.939Z,101304.19
2023-04-29T02:24:23.612Z,101312.84
2023-04-29T02:27:28.865Z,101319.84
2023-04-29T02:30:32.704Z,101312.88
2023-04-29T02:33:36.243Z,101314.59
2023-04-29T02:36:39.922Z,101320.78
2023-04-29T02:39:43.507Z,101335.50
2023-04-29T02:42:49.542Z,101335.53
2023-04-29T02:45:53.692Z,101341.56
2023-04-29T02:48:57.515Z,101336.25
2023-04-29T02:52:01.150Z,101351.91
2023-04-29T02:55:05.365Z,101354.53
2023-04-29T02:58:10.375Z,101357.31
2023-04-29T03:01:14.195Z,101360.72
2023-04-29T03:04:18.027Z,101365.16
2023-04-29T03:07:21.785Z,101364.28
2023-04-29T03:10:25.488Z,101371.25
2023-04-29T03:13:30.690Z,101368.69
2023-04-29T03:16:34.754Z,101367.81
2023-04-29T03:19:39.172Z,101369.63
2023-04-29T03:22:42.876Z,101377.47
2023-04-29T03:25:46.593Z,101376.59
2023-04-29T03:28:51.701Z,101381.88
2023-04-29T03:31:56.960Z,101392.31
2023-04-29T03:35:00.537Z,101392.31
2023-04-29T03:38:04.203Z,101392.25
2023-04-29T03:41:07.991Z,101387.13
2023-04-29T03:44:13.410Z,101387.97
2023-04-29T03:47:16.954Z,101404.41
2023-04-29T03:50:20.552Z,101400.97
2023-04-29T03:53:24.657Z,101409.75
2023-04-29T03:56:28.686Z,101411.44
2023-04-29T03:59:33.782Z,101421.88
2023-04-29T04:02:37.602Z,101434.97
2023-04-29T04:05:41.398Z,101440.25
2023-04-29T04:08:45.168Z,101441.97
2023-04-29T04:11:48.778Z,101439.41
2023-04-29T04:14:54.131Z,101450.69
2023-04-29T04:17:57.770Z,101452.44
2023-04-29T04:21:07.835Z,101448.91
2023-04-29T04:24:11.409Z,101455.06
2023-04-29T04:27:15.047Z,101457.66
2023-04-29T04:30:20.210Z,101458.56
2023-04-29T04:33:23.896Z,101459.34
2023-04-29T04:36:27.457Z,101464.56
2023-04-29T04:39:31.163Z,101474.19
2023-04-29T04:42:34.969Z,101486.34
2023-04-29T04:45:39.917Z,101498.56
2023-04-29T04:48:44.361Z,101493.25
2023-04-29T04:51:48.126Z,101492.44
2023-04-29T04:54:51.792Z,101498.53
2023-04-29T04:57:55.395Z,101512.47
2023-04-29T05:01:00.574Z,101519.38
2023-04-29T05:04:04.446Z,101520.28
2023-04-29T05:07:08.247Z,101531.56
2023-04-29T05:10:12.532Z,101528.94
2023-04-29T05:13:16.321Z,101532.41
2023-04-29T05:16:21.277Z,101539.22
2023-04-29T05:19:25.220Z,101541.06
2023-04-29T05:22:28.808Z,101541.00
2023-04-29T05:25:32.472Z,101541.88
2023-04-29T05:28:36.541Z,101544.38
2023-04-29T05:31:41.584Z,101550.47
2023-04-29T05:34:45.391Z,101548.69
2023-04-29T05:37:49.134Z,101552.09
2023-04-29T05:40:53.242Z,101547.75
2023-04-29T05:43:56.975Z,101546.81
2023-04-29T05:47:02.210Z,101557.28
2023-04-29T05:50:07.184Z,101557.16
2023-04-29T05:53:11.255Z,101558.88
2023-04-29T05:56:14.915Z,101557.88
2023-04-29T05:59:18.510Z,101567.56
2023-04-29T06:02:23.699Z,101567.50
2023-04-29T06:05:28.537Z,101566.63
2023-04-29T06:08:32.776Z,101575.31
2023-04-29T06:11:36.358Z,101583.88
2023-04-29T06:14:40.152Z,101583.00
2023-04-29T06:17:45.127Z,101583.88
2023-04-29T06:20:48.897Z,101586.31
2023-04-29T06:23:53.179Z,101595.91
2023-04-29T06:26:56.867Z,101597.66
2023-04-29T06:30:00.703Z,101601.06
2023-04-29T06:33:06.069Z,101604.59
2023-04-29T06:36:09.990Z,101612.34
2023-04-29T06:39:13.640Z,101613.09
2023-04-29T06:42:17.204Z,101619.81
2023-04-29T06:45:21.050Z,101621.75
2023-04-29T06:48:27.629Z,101626.69
2023-04-29T06:51:32.272Z,101639.03
2023-04-29T06:54:35.888Z,101643.47
2023-04-29T06:57:39.591Z,101643.38
2023-04-29T07:00:47.344Z,101649.50
2023-04-29T07:03:52.819Z,101662.34
2023-04-29T07:06:59.159Z,101663.31
2023-04-29T07:10:02.801Z,101668.50
2023-04-29T07:13:06.861Z,101661.34
2023-04-29T07:16:18.271Z,101670.94
2023-04-29T07:19:23.535Z,101673.69
2023-04-29T07:22:27.413Z,101676.16
2023-04-29T07:25:31.094Z,101665.56
2023-04-29T07:28:34.927Z,101664.28
2023-04-29T07:31:38.706Z,101684.84
2023-04-29T07:34:44.148Z,101682.22
2023-04-29T07:37:48.379Z,101679.75
2023-04-29T07:40:51.973Z,101686.25
2023-04-29T07:43:55.655Z,101687.41
2023-04-29T07:46:59.393Z,101690.63
2023-04-29T07:50:05.442Z,101690.25
2023-04-29T07:53:09.134Z,101698.16
2023-04-29T07:56:12.860Z,101699.47
2023-04-29T07:59:16.736Z,101701.56
2023-04-29T08:02:20.668Z,101700.34
2023-04-29T08:05:26.752Z,101710.69
2023-04-29T08:08:32.157Z,101708.94
2023-04-29T08:11:36.128Z,101721.53
2023-04-29T08:14:39.961Z,101720.97
2023-04-29T08:17:43.964Z,101712.19
2023-04-29T08:20:51.407Z,101721.19
2023-04-29T08:23:55.902Z,101723.03
2023-04-29T08:27:00.098Z,101723.78
2023-04-29T08:30:04.044Z,101721.50
2023-04-29T08:33:07.971Z,101720.97
2023-04-29T08:36:13.142Z,101729.09
2023-04-29T08:39:16.889Z,101737.47
2023-04-29T08:42:34.378Z,101745.63
2023-04-29T08:45:39.810Z,101748.84
2023-04-29T08:48:45.557Z,101752.16
2023-04-29T08:51:52.715Z,101756.78
2023-04-29T08:54:57.977Z,101759.75
2023-04-29T08:58:04.073Z,101759.66
2023-04-29T09:01:10.039Z,101769.09
2023-04-29T09:04:30.774Z,101765.28
2023-04-29T09:07:37.865Z,101773.03
2023-04-29T09:10:44.146Z,101770.28
2023-04-29T09:13:47.810Z,101775.56
2023-04-29T09:16:51.656Z,101766.41
2023-04-29T09:19:57.180Z,101775.63
2023-04-29T09:23:05.320Z,101774.50
2023-04-29T09:26:08.901Z,101775.50
2023-04-29T09:29:16.390Z,101781.59
2023-04-29T09:32:22.928Z,101783.81
2023-04-29T09:35:28.788Z,101779.94
2023-04-29T09:38:33.788Z,101788.09
2023-04-29T09:41:37.718Z,101785.03
2023-04-29T09:44:43.811Z,101773.84
2023-04-29T09:47:47.522Z,101778.88
2023-04-29T09:51:03.103Z,101782.34
2023-04-29T09:54:23.159Z,101778.81
2023-04-29T09:57:45.247Z,101782.22
2023-04-29T10:00:48.973Z,101793.75
2023-04-29T10:03:57.874Z,101780.50
2023-04-29T10:07:03.716Z,101784.19
2023-04-29T10:10:11.831Z,101792.88
2023-04-29T10:13:15.501Z,101786.47
2023-04-29T10:16:30.524Z,101792.03
2023-04-29T10:19:41.016Z,101794.47
2023-04-29T10:22:49.665Z,101794.66
2023-04-29T10:25:56.919Z,101795.00
2023-04-29T10:29:02.264Z,101793.03
2023-04-29T10:32:10.932Z,101798.00
2023-04-29T10:35:19.140Z,101793.97
2023-04-29T10:38:30.924Z,101798.75
2023-04-29T10:41:47.015Z,101796.81
2023-04-29T10:45:22.179Z,101799.91
2023-04-29T10:48:26.650Z,101802.00
2023-04-29T10:51:33.268Z,101793.97
2023-04-29T10:54:36.966Z,101804.22
2023-04-29T10:57:43.002Z,101801.16
2023-04-29T11:00:46.721Z,101809.88
2023-04-29T11:03:58.729Z,101816.19
2023-04-29T11:07:03.202Z,101806.63
2023-04-29T11:10:08.675Z,101812.81
2023-04-29T11:13:27.079Z,101815.25
2023-04-29T11:16:30.900Z,101802.22
2023-04-29T11:19:36.873Z,101814.59
2023-04-29T11:22:40.866Z,101810.63
2023-04-29T11:25:44.688Z,101805.38
2023-04-29T11:28:52.350Z,101823.56
2023-04-29T11:32:01.127Z,101807.78
2023-04-29T11:35:15.755Z,101810.69
2023-04-29T11:38:19.528Z,101816.56
2023-04-29T11:41:24.222Z,101818.13
2023-04-29T11:44:29.476Z,101816.38
2023-04-29T11:47:33.082Z,101820.28
2023-04-29T11:50:36.792Z,101832.44
2023-04-29T11:53:40.584Z,101822.78
2023-04-29T11:56:44.399Z,101836.59
2023-04-29T11:59:49.826Z,101831.25
2023-04-29T12:02:53.647Z,101822.81
2023-04-29T12:05:58.693Z,101847.16
2023-04-29T12:09:04.528Z,101846.00
2023-04-29T12:12:08.302Z,101845.16
2023-04-29T12:15:14.836Z,101845.88
2023-04-29T12:18:20.044Z,101843.44
2023-04-29T12:21:24.074Z,101845.63
2023-04-29T12:24:27.785Z,101853.97
2023-04-29T12:27:31.809Z,101846.97
2023-04-29T12:30:38.905Z,101859.44
2023-04-29T12:33:45.551Z,101849.81
2023-04-29T12:36:49.312Z,101851.97
2023-04-29T12:39:52.940Z,101852.53
2023-04-29T12:42:56.669Z,101854.69
2023-04-29T12:46:05.807Z,101853.34
2023-04-29T12:49:09.723Z,101853.34
2023-04-29T12:52:13.969Z,101859.97
2023-04-29T12:55:17.750Z,101857.13
2023-04-29T12:58:21.504Z,101874.75
2023-04-29T13:01:26.624Z,101872.50
2023-04-29T13:04:30.525Z,101869.03
2023-04-29T13:07:34.413Z,101874.25
2023-04-29T13:10:38.097Z,101880.75
2023-04-29T13:13:41.885Z,101882.50
2023-04-29T13:16:47.579Z,101894.47
2023-04-29T13:19:52.262Z,101890.22
2023-04-29T13:22:57.997Z,101880.53
2023-04-29T13:26:01.778Z,101890.13
2023-04-29T13:29:05.610Z,101887.19
2023-04-29T13:32:10.703Z,101881.78
2023-04-29T13:35:14.274Z,101886.78
2023-04-29T13:38:18.825Z,101886.34
2023-04-29T13:41:22.825Z,101880.06
2023-04-29T13:44:34.090Z,101875.41
2023-04-29T14:00:47.299Z,101898.88
2023-04-29T14:03:46.126Z,101902.16
2023-04-29T14:06:49.815Z,101905.63
2023-04-29T14:09:53.387Z,101912.00
2023-04-29T14:12:56.966Z,101897.16
2023-04-29T14:16:03.731Z,101912.28
2023-04-29T14:19:09.061Z,101926.81
2023-04-29T14:22:12.732Z,101917.31
2023-04-29T14:25:16.577Z,101922.78
2023-04-29T14:28:20.250Z,101920.50
2023-04-29T14:31:23.987Z,101927.72
2023-04-29T14:34:29.050Z,101929.41
2023-04-29T14:37:32.682Z,101935.16
2023-04-29T14:40:36.602Z,101950.63
2023-04-29T14:43:41.733Z,101947.91
2023-04-29T14:46:45.791Z,101955.31
2023-04-29T14:49:51.567Z,101954.69
2023-04-29T14:52:55.298Z,101951.09
2023-04-29T14:55:58.940Z,101970.97
2023-04-29T14:59:02.535Z,101952.66
2023-04-29T15:02:06.201Z,101963.84
2023-04-29T15:05:11.737Z,101974.50
2023-04-29T15:08:15.305Z,101969.41
2023-04-29T15:11:18.954Z,101974.00
2023-04-29T15:14:22.486Z,101966.69
2023-04-29T15:17:26.482Z,101983.00
2023-04-29T15:20:32.678Z,101989.41
2023-04-29T15:23:36.444Z,101994.44
2023-04-29T15:26:40.202Z,101986.72
2023-04-29T15:29:43.802Z,101993.44
2023-04-29T15:32:47.621Z,102002.41
2023-04-29T15:35:52.710Z,101998.84
2023-04-29T15:38:56.511Z,102005.88
2023-04-29T15:42:01.077Z,102013.38
2023-04-29T15:45:05.083Z,102021.22
2023-04-29T15:48:08.944Z,102019.19
2023-04-29T15:51:15.185Z,102027.47
2023-04-29T15:54:18.942Z,102027.63
2023-04-29T15:57:22.656Z,102022.34
2023-04-29T16:00:26.378Z,102040.00
2023-04-29T16:03:30.030Z,102042.59
2023-04-29T16:06:35.345Z,102039.06
2023-04-29T16:09:38.979Z,102044.28
2023-04-29T16:12:43.066Z,102053.13
2023-04-29T16:15:46.799Z,102048.19
2023-04-29T16:18:50.688Z,102054.41
2023-04-29T16:21:56.285Z,102058.69
2023-04-29T16:24:59.949Z,102071.16
2023-04-29T16:28:03.774Z,102056.94
2023-04-29T16:31:07.791Z,102058.69
2023-04-29T16:34:11.757Z,102056.22
2023-04-29T16:37:16.820Z,102056.25
2023-04-29T16:40:20.803Z,102061.69
2023-04-29T16:43:24.614Z,102069.63
2023-04-29T16:46:28.438Z,102066.13
2023-04-29T16:49:32.980Z,102069.72
2023-04-29T16:52:38.003Z,102071.41
2023-04-29T16:55:42.237Z,102073.97
2023-04-29T16:58:45.891Z,102069.56
2023-04-29T17:01:49.879Z,102074.16
2023-04-29T17:04:54.086Z,102072.47
2023-04-29T17:07:59.142Z,102083.91
2023-04-29T17:11:06.381Z,102081.97
2023-04-29T17:14:10.038Z,102078.56
2023-04-29T17:17:13.994Z,102076.09
2023-04-29T17:20:17.681Z,102079.72
2023-04-29T17:23:22.674Z,102079.69
2023-04-29T17:26:26.448Z,102084.88
2023-04-29T17:29:30.239Z,102089.34
2023-04-29T17:32:39.240Z,102090.28
2023-04-29T17:35:43.204Z,102093.84
2023-04-29T17:38:48.350Z,102094.66
2023-04-29T17:41:52.091Z,102093.69
2023-04-29T17:44:55.850Z,102090.34
2023-04-29T17:47:59.601Z,102100.94
2023-04-29T17:51:03.361Z,102100.94
2023-04-29T17:54:10.471Z,102103.63
2023-04-29T17:57:14.324Z,102105.41
2023-04-29T18:00:18.526Z,102113.22
2023-04-29T18:03:23.720Z,102110.81
2023-04-29T18:06:28.463Z,102105.59
2023-04-29T18:09:35.094Z,102118.75
2023-04-29T18:12:38.759Z,102119.66
2023-04-29T18:15:42.829Z,102123.19
2023-04-29T18:18:46.936Z,102122.41
2023-04-29T18:21:50.721Z,102127.75
2023-04-29T18:24:57.951Z,102139.22
2023-04-29T18:28:23.016Z,102139.22
2023-04-29T18:31:28.300Z,102137.63
2023-04-29T18:34:32.100Z,102144.63
2023-04-29T18:37:35.956Z,102148.19
2023-04-29T18:40:41.153Z,102153.44
2023-04-29T18:43:44.853Z,102148.25
2023-04-29T18:46:49.663Z,102157.00
2023-04-29T18:49:53.833Z,102156.13
2023-04-29T18:52:57.979Z,102159.66
2023-04-29T18:56:03.486Z,102163.16
2023-04-29T18:59:08.895Z,102164.91
2023-04-29T19:02:12.575Z,102168.38
2023-04-29T19:05:16.318Z,102175.38
2023-04-29T19:08:19.968Z,102184.09
2023-04-29T19:11:26.486Z,102195.41
2023-04-29T19:14:30.513Z,102191.06
2023-04-29T19:17:34.835Z,102204.13
2023-04-29T19:20:38.479Z,102205.84
2023-04-29T19:23:42.365Z,102211.06
2023-04-29T19:26:47.416Z,102213.69
2023-04-29T19:29:51.438Z,102213.66
2023-04-29T19:32:55.090Z,102218.00
2023-04-29T19:35:58.936Z,102226.69
2023-04-29T19:39:04.541Z,102229.28
2023-04-29T19:42:09.945Z,102231.91
2023-04-29T19:45:19.333Z,102230.16
2023-04-29T19:48:22.981Z,102236.22
2023-04-29T19:51:26.846Z,102228.38
2023-04-29T19:54:30.999Z,102231.81
2023-04-29T19:57:36.531Z,102235.31
2023-04-29T20:00:40.201Z,102229.25
2023-04-29T20:03:44.034Z,102231.84
2023-04-29T20:06:48.171Z,102235.31
2023-04-29T20:09:52.124Z,102241.38
2023-04-29T20:12:57.466Z,102239.63
2023-04-29T20:16:01.535Z,102252.69
2023-04-29T20:19:05.697Z,102251.75
2023-04-29T20:22:09.452Z,102256.97
2023-04-29T20:25:13.173Z,102249.13
2023-04-29T20:28:18.274Z,102258.66
2023-04-29T20:31:22.033Z,102250.75
2023-04-29T20:34:26.481Z,102254.25
2023-04-29T20:37:31.778Z,102265.44
2023-04-29T20:40:36.137Z,102256.78
2023-04-29T20:43:41.204Z,102260.25
2023-04-29T20:46:46.112Z,102258.53
2023-04-29T20:49:49.741Z,102266.34
2023-04-29T20:52:53.749Z,102266.28
2023-04-29T20:55:57.391Z,102266.25
2023-04-29T20:59:03.053Z,102267.94
2023-04-29T21:02:06.639Z,102264.47
2023-04-29T21:05:11.213Z,102268.78
2023-04-29T21:08:14.827Z,102271.38
2023-04-29T21:11:18.567Z,102270.44
2023-04-29T21:14:23.511Z,102281.81
2023-04-29T21:17:27.118Z,102278.34
2023-04-29T21:20:30.721Z,102281.69
2023-04-29T21:23:34.361Z,102275.59
2023-04-29T21:26:37.928Z,102288.53
2023-04-29T21:29:42.926Z,102290.28
2023-04-29T21:32:46.575Z,102290.13
2023-04-29T21:35:51.603Z,102294.53
2023-04-29T21:38:55.707Z,102300.56
2023-04-29T21:42:01.153Z,102305.66
2023-04-29T21:45:08.553Z,102305.59
2023-04-29T21:48:17.622Z,102313.44
2023-04-29T21:51:22.821Z,102308.19
2023-04-29T21:54:26.528Z,102313.28
2023-04-29T21:57:42.669Z,102306.19
2023-04-29T22:00:58.408Z,102312.25
2023-04-29T22:04:02.167Z,102306.22
2023-04-29T22:07:05.823Z,102308.75
2023-04-29T22:10:10.721Z,102305.31
2023-04-29T22:13:14.540Z,102312.19
2023-04-29T22:16:19.851Z,102315.59
2023-04-29T22:19:23.715Z,102311.28
2023-04-29T22:22:27.534Z,102319.06
2023-04-29T22:25:31.398Z,102317.38
2023-04-29T22:28:35.211Z,102313.97
2023-04-29T22:31:40.225Z,102323.31
2023-04-29T22:34:44.006Z,102319.75
2023-04-29T22:37:48.133Z,102325.88
2023-04-29T22:40:52.565Z,102330.97
2023-04-29T22:43:57.661Z,102327.50
2023-04-29T22:47:03.376Z,102331.88
2023-04-29T22:50:08.738Z,102329.22
2023-04-29T22:53:12.427Z,102323.19
2023-04-29T22:56:15.979Z,102332.72
2023-04-29T22:59:19.678Z,102340.47
2023-04-29T23:02:28.986Z,102336.91
2023-04-29T23:05:32.873Z,102345.56
2023-04-29T23:08:36.452Z,102341.97
2023-04-29T23:11:40.281Z,102344.53
2023-04-29T23:14:43.950Z,102342.75
2023-04-29T23:17:49.015Z,102343.69
2023-04-29T23:20:53.075Z,102345.31
2023-04-29T23:23:56.681Z,102350.53
2023-04-29T23:27:00.278Z,102351.25
2023-04-29T23:30:03.924Z,102350.28
2023-04-29T23:33:09.156Z,102354.66
2023-04-29T23:36:12.887Z,102351.16
2023-04-29T23:39:16.645Z,102355.53
2023-04-29T23:42:20.503Z,102362.44
2023-04-29T23:45:24.152Z,102359.88
2023-04-29T23:48:29.200Z,102362.44
2023-04-29T23:51:33.100Z,102371.84
2023-04-29T23:54:36.686Z,102357.94
2023-04-29T23:57:40.337Z,102370.09
